createdAt,value
2019-05-30T00:02:18.881Z,95.70
2019-05-30T00:05:13.253Z,95.80
2019-05-30T00:08:02.397Z,96.10
2019-05-30T00:10:54.484Z,96.20
2019-05-30T00:13:44.866Z,96.60
2019-05-30T00:16:33.840Z,96.80
2019-05-30T00:19:22.127Z,96.90
2019-05-30T00:22:31.587Z,97.20
2019-05-30T00:25:18.269Z,97.10
2019-05-30T00:28:07.572Z,97.30
2019-05-30T00:30:56.381Z,97.50
2019-05-30T00:33:45.246Z,97.60
2019-05-30T00:36:52.230Z,97.50
2019-05-30T00:39:40.770Z,97.40
2019-05-30T00:42:31.425Z,97.50
2019-05-30T00:45:25.342Z,97.10
2019-05-30T00:48:13.617Z,97.50
2019-05-30T00:51:02.648Z,97.60
2019-05-30T00:53:51.147Z,97.50
2019-05-30T00:56:39.931Z,97.30
2019-05-30T00:59:30.949Z,97.40
2019-05-30T01:02:19.573Z,97.00
2019-05-30T01:05:08.709Z,97.00
2019-05-30T01:07:58.843Z,96.80
2019-05-30T01:10:56.885Z,97.30
2019-05-30T01:14:05.407Z,96.50
2019-05-30T01:16:53.294Z,96.70
2019-05-30T01:19:43.614Z,96.60
2019-05-30T01:22:34.535Z,96.40
2019-05-30T01:25:23.271Z,96.60
2019-05-30T01:28:13.032Z,96.70
2019-05-30T01:31:10.161Z,96.80
2019-05-30T01:33:53.494Z,96.90
2019-05-30T01:36:43.679Z,96.90
2019-05-30T01:39:32.262Z,96.70
2019-05-30T01:42:20.571Z,96.90
2019-05-30T01:45:09.719Z,96.80
2019-05-30T01:48:00.344Z,96.80
2019-05-30T01:50:49.911Z,96.70
2019-05-30T01:53:39.547Z,96.70
2019-05-30T01:56:37.895Z,97.10
2019-05-30T01:59:26.226Z,97.20
2019-05-30T02:05:40.653Z,95.80
2019-05-30T02:08:28.941Z,97.40
2019-05-30T02:11:17.854Z,96.00
2019-05-30T02:14:07.640Z,95.90
2019-05-30T02:17:03.650Z,95.60
2019-05-30T02:19:54.111Z,95.60
2019-05-30T02:23:10.007Z,95.90
2019-05-30T02:26:02.199Z,96.20
2019-05-30T02:28:50.815Z,96.80
2019-05-30T02:31:39.983Z,96.10
2019-05-30T02:34:31.476Z,95.60
2019-05-30T02:37:21.747Z,96.00
2019-05-30T02:41:12.396Z,96.60
2019-05-30T02:43:38.129Z,96.30
2019-05-30T02:46:32.599Z,96.30
2019-05-30T02:52:34.282Z,96.20
2019-05-30T02:55:31.287Z,97.00
2019-05-30T02:58:26.647Z,96.50
2019-05-30T03:01:14.821Z,96.30
2019-05-30T03:07:46.745Z,95.80
2019-05-30T03:17:22.194Z,96.30
2019-05-30T03:20:38.897Z,95.40
2019-05-30T03:23:35.376Z,95.50
2019-05-30T03:26:29.147Z,95.50
2019-05-30T03:29:17.143Z,95.50
2019-05-30T03:35:55.432Z,95.10
2019-05-30T03:38:52.493Z,95.50
2019-05-30T03:49:12.776Z,95.90
2019-05-30T03:55:35.691Z,94.70
2019-05-30T03:59:07.911Z,95.90
2019-05-30T04:02:56.090Z,95.10
2019-05-30T04:06:07.277Z,95.20
2019-05-30T04:09:09.906Z,96.30
2019-05-30T04:13:14.686Z,95.60
2019-05-30T04:15:36.181Z,95.10
2019-05-30T04:18:30.033Z,95.20
2019-05-30T04:21:27.639Z,95.50
2019-05-30T04:24:23.372Z,95.30
2019-05-30T04:27:44.743Z,95.20
2019-05-30T04:30:45.491Z,95.50
2019-05-30T04:37:00.370Z,95.50
2019-05-30T04:40:02.908Z,95.30
2019-05-30T04:42:58.357Z,95.40
2019-05-30T04:45:48.933Z,95.40
2019-05-30T04:56:46.022Z,95.70
2019-05-30T05:06:41.589Z,95.50
2019-05-30T05:09:32.623Z,95.90
2019-05-30T05:12:22.494Z,95.30
2019-05-30T05:15:30.135Z,95.70
2019-05-30T05:18:21.098Z,94.90
2019-05-30T05:21:18.961Z,94.80
2019-05-30T05:27:36.260Z,95.00
2019-05-30T05:30:40.830Z,94.90
2019-05-30T05:33:55.684Z,94.90
2019-05-30T05:36:45.972Z,95.80
2019-05-30T05:39:41.038Z,95.80
2019-05-30T05:42:35.379Z,95.30
2019-05-30T05:45:24.609Z,95.10
2019-05-30T05:48:54.616Z,95.40
2019-05-30T05:51:49.264Z,94.90
2019-05-30T05:55:06.047Z,94.50
2019-05-30T05:57:52.842Z,95.00
2019-05-30T06:00:41.279Z,95.50
2019-05-30T06:03:41.170Z,95.00
2019-05-30T06:06:39.591Z,95.30
2019-05-30T06:09:29.556Z,94.80
2019-05-30T06:12:32.743Z,95.30
2019-05-30T06:15:19.449Z,94.40
2019-05-30T06:18:13.883Z,94.50
2019-05-30T06:21:17.433Z,94.30
2019-05-30T06:24:15.946Z,94.10
2019-05-30T06:27:08.351Z,94.70
2019-05-30T06:30:04.725Z,93.90
2019-05-30T06:32:53.514Z,93.60
2019-05-30T06:35:41.751Z,93.70
2019-05-30T06:38:33.201Z,94.20
2019-05-30T06:41:45.154Z,93.80
2019-05-30T06:44:34.798Z,93.80
2019-05-30T06:47:24.380Z,93.50
2019-05-30T06:50:13.382Z,93.00
2019-05-30T06:53:01.942Z,93.30
2019-05-30T06:55:50.506Z,93.30
2019-05-30T06:58:48.319Z,91.60
2019-05-30T07:01:38.891Z,91.20
2019-05-30T07:04:27.576Z,91.60
2019-05-30T07:07:16.024Z,92.70
2019-05-30T07:10:06.127Z,90.70
2019-05-30T07:12:57.485Z,91.80
2019-05-30T07:15:45.712Z,92.70
2019-05-30T07:18:36.586Z,91.10
2019-05-30T07:21:24.140Z,91.70
2019-05-30T07:24:12.489Z,90.90
2019-05-30T07:27:00.624Z,90.70
2019-05-30T07:53:17.185Z,90.00
2019-05-30T07:56:15.487Z,90.40
2019-05-30T07:59:28.219Z,91.40
2019-05-30T08:02:19.243Z,89.10
2019-05-30T08:05:23.382Z,88.80
2019-05-30T08:08:00.646Z,82.20
2019-05-30T08:10:48.679Z,80.40
2019-05-30T08:13:37.481Z,80.70
2019-05-30T08:16:27.074Z,81.60
2019-05-30T08:19:15.668Z,78.60
2019-05-30T08:22:03.989Z,77.20
2019-05-30T08:24:52.544Z,75.80
2019-05-30T08:27:41.016Z,76.20
2019-05-30T08:30:30.757Z,72.10
2019-05-30T08:33:21.512Z,73.60
2019-05-30T08:36:09.207Z,72.40
2019-05-30T08:38:57.701Z,71.70
2019-05-30T08:41:46.158Z,72.70
2019-05-30T08:44:35.838Z,74.60
2019-05-30T08:47:24.204Z,74.10
2019-05-30T08:50:12.583Z,70.00
2019-05-30T08:53:00.918Z,74.40
2019-05-30T08:55:49.128Z,66.50
2019-05-30T08:58:38.673Z,66.80
2019-05-30T09:01:27.041Z,69.80
2019-05-30T09:04:15.428Z,73.50
2019-05-30T09:07:04.095Z,70.20
2019-05-30T09:09:52.651Z,68.30
2019-05-30T09:12:45.210Z,63.50
2019-05-30T09:15:30.792Z,65.20
2019-05-30T09:18:19.275Z,65.70
2019-05-30T09:21:08.367Z,69.40
2019-05-30T09:24:01.101Z,71.20
2019-05-30T09:26:50.185Z,66.10
2019-05-30T09:29:37.879Z,63.90
2019-05-30T09:32:27.104Z,63.70
2019-05-30T09:35:16.007Z,61.30
2019-05-30T09:38:04.153Z,60.40
2019-05-30T09:40:52.663Z,61.20
2019-05-30T09:43:41.601Z,59.80
2019-05-30T09:46:30.116Z,60.30
2019-05-30T09:49:18.195Z,60.70
2019-05-30T09:52:06.308Z,61.40
2019-05-30T09:54:54.753Z,61.30
2019-05-30T09:57:44.204Z,58.40
2019-05-30T10:00:34.554Z,64.60
2019-05-30T10:03:22.508Z,62.90
2019-05-30T10:06:10.934Z,63.10
2019-05-30T10:08:59.129Z,59.50
2019-05-30T10:11:47.389Z,61.40
2019-05-30T10:14:35.893Z,62.60
2019-05-30T10:17:26.819Z,63.40
2019-05-30T10:20:16.932Z,63.90
2019-05-30T10:23:05.030Z,64.60
2019-05-30T10:25:53.446Z,64.10
2019-05-30T10:28:41.999Z,62.50
2019-05-30T10:31:29.936Z,60.60
2019-05-30T10:34:18.300Z,62.40
2019-05-30T10:37:06.678Z,61.30
2019-05-30T10:39:58.686Z,58.90
2019-05-30T10:42:46.195Z,58.60
2019-05-30T10:45:34.559Z,57.20
2019-05-30T10:48:23.508Z,58.70
2019-05-30T10:51:12.004Z,61.50
2019-05-30T10:54:00.707Z,59.30
2019-05-30T10:56:49.918Z,60.90
2019-05-30T10:59:38.426Z,62.10
2019-05-30T11:02:26.751Z,62.60
2019-05-30T11:05:15.814Z,61.20
2019-05-30T11:08:06.747Z,60.60
2019-05-30T11:10:55.076Z,61.40
2019-05-30T11:13:43.953Z,61.70
2019-05-30T11:16:31.899Z,63.40
2019-05-30T11:19:20.301Z,61.00
2019-05-30T11:22:08.879Z,64.80
2019-05-30T11:24:59.400Z,65.20
2019-05-30T11:27:48.594Z,64.60
2019-05-30T11:30:36.971Z,66.60
2019-05-30T11:33:24.856Z,63.60
2019-05-30T11:36:13.343Z,67.60
2019-05-30T11:39:01.782Z,66.50
2019-05-30T11:41:51.184Z,63.10
2019-05-30T11:44:39.525Z,65.40
2019-05-30T11:47:28.421Z,64.40
2019-05-30T11:50:18.959Z,64.50
2019-05-30T11:53:07.686Z,59.20
2019-05-30T11:55:56.227Z,59.90
2019-05-30T11:58:44.778Z,59.20
2019-05-30T12:01:32.964Z,58.00
2019-05-30T12:04:21.439Z,56.00
2019-05-30T12:07:10.287Z,56.40
2019-05-30T12:09:59.071Z,53.70
2019-05-30T12:12:47.420Z,56.40
2019-05-30T12:15:35.514Z,56.40
2019-05-30T12:18:23.747Z,57.60
2019-05-30T12:21:11.777Z,56.00
2019-05-30T12:24:00.341Z,55.30
2019-05-30T12:26:51.800Z,56.90
2019-05-30T12:29:40.755Z,54.60
2019-05-30T12:32:29.200Z,52.60
2019-05-30T12:35:18.199Z,55.00
2019-05-30T12:38:06.833Z,55.20
2019-05-30T12:40:55.231Z,54.10
2019-05-30T12:43:43.566Z,54.90
2019-05-30T12:46:31.980Z,54.60
2019-05-30T12:49:20.357Z,53.80
2019-05-30T12:52:08.781Z,55.00
2019-05-30T12:54:58.420Z,54.70
2019-05-30T12:57:46.673Z,56.60
2019-05-30T13:00:37.815Z,54.90
2019-05-30T13:03:26.068Z,57.70
2019-05-30T13:06:14.439Z,55.70
2019-05-30T13:09:04.259Z,56.50
2019-05-30T13:11:52.683Z,53.70
2019-05-30T13:14:41.244Z,52.50
2019-05-30T13:17:29.529Z,54.60
2019-05-30T13:20:18.791Z,59.40
2019-05-30T13:23:07.432Z,59.60
2019-05-30T13:25:57.255Z,57.50
2019-05-30T13:28:45.777Z,56.70
2019-05-30T13:31:34.199Z,58.80
2019-05-30T13:34:22.644Z,57.70
2019-05-30T13:37:11.400Z,54.30
2019-05-30T13:39:59.448Z,51.30
2019-05-30T13:42:48.027Z,54.10
2019-05-30T13:45:37.012Z,56.40
2019-05-30T13:48:25.512Z,56.50
2019-05-30T13:51:13.486Z,54.60
2019-05-30T13:54:01.615Z,53.00
2019-05-30T13:56:50.299Z,51.40
2019-05-30T13:59:38.347Z,54.80
2019-05-30T14:02:27.154Z,55.60
2019-05-30T14:05:16.094Z,56.80
2019-05-30T14:08:08.391Z,58.80
2019-05-30T14:10:54.307Z,54.50
2019-05-30T14:13:42.904Z,55.00
2019-05-30T14:16:31.708Z,53.50
2019-05-30T14:19:20.126Z,54.20
2019-05-30T14:22:09.321Z,54.70
2019-05-30T14:24:58.089Z,54.30
2019-05-30T14:27:46.699Z,54.30
2019-05-30T14:30:35.266Z,52.60
2019-05-30T14:33:24.015Z,57.00
2019-05-30T14:36:13.349Z,54.30
2019-05-30T14:39:02.674Z,54.80
2019-05-30T14:41:51.377Z,56.30
2019-05-30T14:44:39.818Z,57.20
2019-05-30T14:47:27.943Z,55.80
2019-05-30T14:50:17.365Z,54.20
2019-05-30T14:53:08.776Z,54.40
2019-05-30T14:55:56.712Z,55.30
2019-05-30T14:58:48.016Z,55.80
2019-05-30T15:01:36.832Z,55.90
2019-05-30T15:04:25.624Z,53.70
2019-05-30T15:07:14.154Z,53.40
2019-05-30T15:10:02.262Z,56.80
2019-05-30T15:12:50.983Z,55.70
2019-05-30T15:15:39.095Z,53.70
2019-05-30T15:18:27.302Z,54.40
2019-05-30T15:21:15.258Z,56.90
2019-05-30T15:24:03.766Z,58.10
2019-05-30T15:26:51.992Z,59.30
2019-05-30T15:29:40.695Z,62.10
2019-05-30T15:32:29.552Z,59.00
2019-05-30T15:35:19.014Z,60.80
2019-05-30T15:38:08.774Z,62.70
2019-05-30T15:40:57.690Z,63.50
2019-05-30T15:43:46.039Z,60.50
2019-05-30T15:46:34.195Z,55.70
2019-05-30T15:49:22.527Z,53.70
2019-05-30T15:52:12.026Z,55.00
2019-05-30T15:55:02.006Z,56.30
2019-05-30T15:57:50.746Z,55.50
2019-05-30T16:00:38.889Z,54.00
2019-05-30T16:03:27.694Z,54.30
2019-05-30T16:06:16.538Z,55.40
2019-05-30T16:09:06.603Z,54.30
2019-05-30T16:11:55.331Z,53.70
2019-05-30T16:14:43.587Z,54.30
2019-05-30T16:17:32.083Z,54.30
2019-05-30T16:20:20.520Z,52.80
2019-05-30T16:23:08.773Z,53.50
2019-05-30T16:25:57.302Z,53.40
2019-05-30T16:28:45.446Z,53.40
2019-05-30T16:31:34.148Z,54.00
2019-05-30T16:34:22.393Z,51.80
2019-05-30T16:37:10.807Z,54.90
2019-05-30T16:40:05.965Z,53.00
2019-05-30T16:42:48.781Z,53.00
2019-05-30T16:45:37.244Z,52.00
2019-05-30T16:48:26.713Z,52.70
2019-05-30T16:51:16.586Z,53.90
2019-05-30T16:54:05.246Z,52.50
2019-05-30T16:56:53.444Z,52.20
2019-05-30T16:59:42.296Z,54.60
2019-05-30T17:02:30.880Z,54.10
2019-05-30T17:05:19.823Z,53.20
2019-05-30T17:08:08.283Z,53.80
2019-05-30T17:10:56.771Z,54.60
2019-05-30T17:13:45.090Z,53.60
2019-05-30T17:16:33.720Z,53.10
2019-05-30T17:19:22.344Z,53.20
2019-05-30T17:22:11.171Z,54.40
2019-05-30T17:24:59.235Z,53.40
2019-05-30T17:27:47.757Z,53.00
2019-05-30T17:30:35.999Z,53.90
2019-05-30T17:33:25.525Z,54.60
2019-05-30T17:36:14.371Z,54.50
2019-05-30T17:39:02.739Z,55.60
2019-05-30T17:41:50.827Z,55.50
2019-05-30T17:44:39.259Z,56.10
2019-05-30T17:47:27.707Z,55.90
2019-05-30T17:50:16.729Z,56.70
2019-05-30T17:53:04.811Z,56.20
2019-05-30T17:55:53.395Z,56.90
2019-05-30T17:58:41.675Z,57.10
2019-05-30T18:01:30.539Z,55.40
2019-05-30T18:04:20.272Z,56.90
2019-05-30T18:07:08.767Z,58.60
2019-05-30T18:09:56.916Z,58.70
2019-05-30T18:12:45.278Z,58.70
2019-05-30T18:15:33.535Z,58.60
2019-05-30T18:18:23.056Z,58.70
2019-05-30T18:21:11.632Z,58.40
2019-05-30T18:24:00.068Z,58.40
2019-05-30T18:26:48.188Z,58.60
2019-05-30T18:29:36.844Z,59.20
2019-05-30T18:32:25.966Z,59.50
2019-05-30T18:35:14.982Z,60.40
2019-05-30T18:38:03.696Z,62.20
2019-05-30T18:40:51.768Z,64.30
2019-05-30T18:43:40.227Z,66.00
2019-05-30T18:46:29.180Z,67.80
2019-05-30T18:49:17.472Z,69.00
2019-05-30T18:52:06.075Z,69.30
2019-05-30T18:54:54.338Z,71.30
2019-05-30T18:57:42.411Z,72.50
2019-05-30T19:00:31.249Z,73.20
2019-05-30T19:03:20.019Z,74.90
2019-05-30T19:06:08.321Z,75.30
2019-05-30T19:08:56.616Z,75.50
2019-05-30T19:11:44.658Z,76.10
2019-05-30T19:14:34.563Z,77.00
2019-05-30T19:17:23.180Z,77.60
2019-05-30T19:20:12.448Z,76.80
2019-05-30T19:23:00.762Z,76.80
2019-05-30T19:25:49.350Z,76.40
2019-05-30T19:28:37.368Z,76.90
2019-05-30T19:31:26.508Z,76.60
2019-05-30T19:34:14.934Z,77.20
2019-05-30T19:37:03.250Z,77.70
2019-05-30T19:39:51.738Z,76.80
2019-05-30T19:42:39.951Z,76.70
2019-05-30T19:45:29.868Z,78.40
2019-05-30T19:48:18.234Z,78.00
2019-05-30T19:51:07.123Z,78.10
2019-05-30T19:53:55.607Z,78.40
2019-05-30T19:56:43.850Z,79.20
2019-05-30T19:59:33.696Z,79.30
2019-05-30T20:02:22.254Z,78.70
2019-05-30T20:05:11.638Z,78.60
2019-05-30T20:08:00.419Z,79.00
2019-05-30T20:10:48.693Z,78.50
2019-05-30T20:13:37.231Z,79.00
2019-05-30T20:16:25.650Z,78.80
2019-05-30T20:19:14.322Z,78.60
2019-05-30T20:22:02.500Z,78.90
2019-05-30T20:24:50.650Z,78.80
2019-05-30T20:27:39.187Z,78.60
2019-05-30T20:30:27.365Z,79.10
2019-05-30T20:33:15.709Z,79.40
2019-05-30T20:36:03.943Z,79.50
2019-05-30T20:38:52.995Z,80.50
2019-05-30T20:41:41.572Z,80.90
2019-05-30T20:44:29.674Z,81.80
2019-05-30T20:47:17.676Z,81.90
2019-05-30T20:50:08.207Z,83.20
2019-05-30T20:52:56.535Z,82.20
2019-05-30T20:55:45.029Z,83.10
2019-05-30T20:58:33.811Z,83.30
2019-05-30T21:01:22.589Z,83.50
2019-05-30T21:04:10.869Z,82.60
2019-05-30T21:06:59.753Z,82.60
2019-05-30T21:09:48.471Z,82.80
2019-05-30T21:12:41.364Z,83.20
2019-05-30T21:15:27.148Z,82.00
2019-05-30T21:18:17.867Z,83.50
2019-05-30T21:21:06.439Z,83.30
2019-05-30T21:23:55.024Z,83.30
2019-05-30T21:26:43.095Z,83.10
2019-05-30T21:29:31.326Z,84.20
2019-05-30T21:32:19.237Z,83.80
2019-05-30T21:35:08.019Z,84.00
2019-05-30T21:37:57.031Z,83.70
2019-05-30T21:40:46.570Z,83.80
2019-05-30T21:43:35.137Z,83.70
2019-05-30T21:46:25.039Z,83.90
2019-05-30T21:49:13.287Z,83.70
2019-05-30T21:52:01.477Z,84.00
2019-05-30T21:54:50.213Z,84.50
2019-05-30T21:57:38.198Z,86.20
2019-05-30T22:00:48.582Z,86.00
2019-05-30T22:03:38.063Z,85.70
2019-05-30T22:06:26.550Z,85.40
2019-05-30T22:09:15.407Z,86.00
2019-05-30T22:12:03.795Z,86.10
2019-05-30T22:14:52.051Z,85.60
2019-05-30T22:17:41.716Z,86.50
2019-05-30T22:20:30.047Z,85.40
2019-05-30T22:23:18.627Z,86.80
2019-05-30T22:26:06.770Z,87.10
2019-05-30T22:28:54.940Z,86.30
2019-05-30T22:31:44.671Z,86.90
2019-05-30T22:34:33.231Z,86.40
2019-05-30T22:37:21.912Z,85.80
2019-05-30T22:40:10.946Z,86.20
2019-05-30T22:42:59.021Z,87.70
2019-05-30T22:45:48.197Z,86.60
2019-05-30T22:48:36.823Z,88.20
2019-05-30T22:51:27.589Z,87.30
2019-05-30T22:54:15.415Z,87.10
2019-05-30T22:57:04.006Z,87.50
2019-05-30T22:59:53.049Z,87.60
2019-05-30T23:02:41.051Z,88.00
2019-05-30T23:05:29.749Z,89.00
2019-05-30T23:08:18.151Z,89.80
2019-05-30T23:11:06.468Z,88.00
2019-05-30T23:13:56.068Z,88.10
2019-05-30T23:16:46.050Z,88.60
2019-05-30T23:19:34.699Z,88.10
2019-05-30T23:22:23.242Z,88.90
2019-05-30T23:25:11.987Z,89.80
2019-05-30T23:28:00.371Z,89.30
2019-05-30T23:30:49.843Z,89.40
2019-05-30T23:33:38.306Z,90.10
2019-05-30T23:36:27.223Z,89.30
2019-05-30T23:39:15.839Z,90.60
2019-05-30T23:42:04.113Z,90.60
2019-05-30T23:44:53.332Z,90.20
2019-05-30T23:47:42.224Z,91.70
2019-05-30T23:50:30.358Z,92.30
2019-05-30T23:53:18.410Z,90.50
2019-05-30T23:56:07.215Z,91.20
2019-05-30T23:58:56.832Z,92.10
